Hannah, North Dakota
Current Conditions -  °F | °C
As of 11:15 PM on Monday 20 Oct 2014 (Local Time) from KD55 Reporting Station
Clear Clear  
Wind Chill: 37°   Ceiling: Unl
Heat Index: 45°   Visibility: 10mi
Dew Point: 39°   Wind: 16mph
Humidity: 81%   Direction: 150°SSE
Pressure: 30"   Gusts: NA
Location:  48.97°N, 98.69°W
Report Text: KD55 210415Z AUTO 15014KT 10SM CLR 07/04 A3000 RMK AO2
Loading
Personal Weather Stations






























Interactive Weather Map
Tropical Storm Tracking
New forecast layout! Learn more

10-Day Weather Forecast

Advertisements
Track Severe Weather on mobile